sensor_id;sensor_type;location;lat;lon;timestamp;P1;durP1;ratioP1;P2;durP2;ratioP2
12385;SDS011;6257;57.634;18.310;2024-03-29T00:02:10;29.97;;;22.03;;
12385;SDS011;6257;57.634;18.310;2024-03-29T00:04:38;30.80;;;22.80;;
12385;SDS011;6257;57.634;18.310;2024-03-29T00:07:04;30.87;;;23.10;;
12385;SDS011;6257;57.634;18.310;2024-03-29T00:09:30;29.63;;;21.27;;
12385;SDS011;6257;57.634;18.310;2024-03-29T00:11:57;32.17;;;22.50;;
12385;SDS011;6257;57.634;18.310;2024-03-29T00:14:23;30.90;;;22.87;;
12385;SDS011;6257;57.634;18.310;2024-03-29T00:16:50;30.70;;;21.27;;
12385;SDS011;6257;57.634;18.310;2024-03-29T00:19:16;33.23;;;22.57;;
12385;SDS011;6257;57.634;18.310;2024-03-29T00:21:43;31.07;;;21.53;;
12385;SDS011;6257;57.634;18.310;2024-03-29T00:24:09;29.60;;;21.57;;
12385;SDS011;6257;57.634;18.310;2024-03-29T00:26:35;29.30;;;21.60;;
12385;SDS011;6257;57.634;18.310;2024-03-29T00:29:02;32.67;;;22.23;;
12385;SDS011;6257;57.634;18.310;2024-03-29T00:31:28;28.60;;;20.80;;
12385;SDS011;6257;57.634;18.310;2024-03-29T00:33:54;29.67;;;21.33;;
12385;SDS011;6257;57.634;18.310;2024-03-29T00:36:20;29.00;;;21.07;;
12385;SDS011;6257;57.634;18.310;2024-03-29T00:38:48;30.60;;;21.07;;
12385;SDS011;6257;57.634;18.310;2024-03-29T00:41:14;29.33;;;21.03;;
12385;SDS011;6257;57.634;18.310;2024-03-29T00:43:40;31.63;;;20.40;;
12385;SDS011;6257;57.634;18.310;2024-03-29T00:46:07;31.53;;;22.40;;
12385;SDS011;6257;57.634;18.310;2024-03-29T00:48:33;30.87;;;20.03;;
12385;SDS011;6257;57.634;18.310;2024-03-29T00:50:59;34.20;;;22.33;;
12385;SDS011;6257;57.634;18.310;2024-03-29T00:53:25;27.37;;;19.53;;
12385;SDS011;6257;57.634;18.310;2024-03-29T00:55:53;30.07;;;21.07;;
12385;SDS011;6257;57.634;18.310;2024-03-29T00:58:19;30.27;;;18.17;;
12385;SDS011;6257;57.634;18.310;2024-03-29T01:00:45;29.90;;;20.90;;
12385;SDS011;6257;57.634;18.310;2024-03-29T01:03:11;30.87;;;21.23;;
12385;SDS011;6257;57.634;18.310;2024-03-29T01:05:37;28.50;;;20.80;;
12385;SDS011;6257;57.634;18.310;2024-03-29T01:08:04;30.80;;;21.20;;
12385;SDS011;6257;57.634;18.310;2024-03-29T01:10:30;26.97;;;20.80;;
12385;SDS011;6257;57.634;18.310;2024-03-29T01:12:58;29.33;;;20.63;;
12385;SDS011;6257;57.634;18.310;2024-03-29T01:15:25;28.17;;;20.73;;
12385;SDS011;6257;57.634;18.310;2024-03-29T01:17:51;26.33;;;19.57;;
12385;SDS011;6257;57.634;18.310;2024-03-29T01:20:17;30.20;;;20.30;;
12385;SDS011;6257;57.634;18.310;2024-03-29T01:22:43;29.37;;;19.60;;
12385;SDS011;6257;57.634;18.310;2024-03-29T01:25:09;30.43;;;20.90;;
12385;SDS011;6257;57.634;18.310;2024-03-29T01:27:36;27.90;;;20.30;;
12385;SDS011;6257;57.634;18.310;2024-03-29T01:30:04;31.67;;;20.73;;
12385;SDS011;6257;57.634;18.310;2024-03-29T01:32:31;28.80;;;19.70;;
12385;SDS011;6257;57.634;18.310;2024-03-29T01:34:57;27.40;;;19.73;;
12385;SDS011;6257;57.634;18.310;2024-03-29T01:37:23;29.07;;;20.37;;
12385;SDS011;6257;57.634;18.310;2024-03-29T01:39:49;27.00;;;19.93;;
12385;SDS011;6257;57.634;18.310;2024-03-29T01:42:16;27.30;;;19.67;;
12385;SDS011;6257;57.634;18.310;2024-03-29T01:44:42;30.57;;;19.60;;
12385;SDS011;6257;57.634;18.310;2024-03-29T01:47:11;30.23;;;19.07;;
12385;SDS011;6257;57.634;18.310;2024-03-29T01:49:38;27.03;;;19.60;;
12385;SDS011;6257;57.634;18.310;2024-03-29T01:52:06;28.37;;;19.57;;
12385;SDS011;6257;57.634;18.310;2024-03-29T01:54:33;26.43;;;19.00;;
12385;SDS011;6257;57.634;18.310;2024-03-29T01:57:00;27.97;;;18.90;;
12385;SDS011;6257;57.634;18.310;2024-03-29T01:59:27;28.43;;;18.83;;
12385;SDS011;6257;57.634;18.310;2024-03-29T02:01:55;24.60;;;17.93;;
12385;SDS011;6257;57.634;18.310;2024-03-29T02:04:24;28.20;;;18.37;;
12385;SDS011;6257;57.634;18.310;2024-03-29T02:06:51;26.57;;;18.60;;
12385;SDS011;6257;57.634;18.310;2024-03-29T02:09:18;30.03;;;19.07;;
12385;SDS011;6257;57.634;18.310;2024-03-29T02:11:45;24.37;;;17.67;;
12385;SDS011;6257;57.634;18.310;2024-03-29T02:14:13;25.33;;;16.83;;
12385;SDS011;6257;57.634;18.310;2024-03-29T02:16:40;24.10;;;17.37;;
12385;SDS011;6257;57.634;18.310;2024-03-29T02:19:07;23.70;;;17.17;;
12385;SDS011;6257;57.634;18.310;2024-03-29T02:21:36;26.70;;;16.83;;
12385;SDS011;6257;57.634;18.310;2024-03-29T02:24:08;25.27;;;17.03;;
12385;SDS011;6257;57.634;18.310;2024-03-29T02:26:37;21.63;;;16.53;;
12385;SDS011;6257;57.634;18.310;2024-03-29T02:29:07;22.10;;;15.47;;
12385;SDS011;6257;57.634;18.310;2024-03-29T02:31:34;21.50;;;15.27;;
12385;SDS011;6257;57.634;18.310;2024-03-29T02:34:01;21.47;;;15.77;;
12385;SDS011;6257;57.634;18.310;2024-03-29T02:36:28;22.40;;;15.33;;
12385;SDS011;6257;57.634;18.310;2024-03-29T02:38:55;22.63;;;16.10;;
12385;SDS011;6257;57.634;18.310;2024-03-29T02:41:24;21.97;;;15.37;;
12385;SDS011;6257;57.634;18.310;2024-03-29T02:43:55;23.23;;;15.70;;
12385;SDS011;6257;57.634;18.310;2024-03-29T02:46:22;23.80;;;16.37;;
12385;SDS011;6257;57.634;18.310;2024-03-29T02:48:49;21.33;;;15.87;;
12385;SDS011;6257;57.634;18.310;2024-03-29T02:51:16;21.90;;;15.70;;
12385;SDS011;6257;57.634;18.310;2024-03-29T02:53:43;23.13;;;16.10;;
12385;SDS011;6257;57.634;18.310;2024-03-29T02:56:09;22.63;;;15.50;;
12385;SDS011;6257;57.634;18.310;2024-03-29T02:58:37;21.97;;;15.10;;
12385;SDS011;6257;57.634;18.310;2024-03-29T03:01:07;22.87;;;15.57;;
12385;SDS011;6257;57.634;18.310;2024-03-29T03:03:34;21.27;;;15.00;;
12385;SDS011;6257;57.634;18.310;2024-03-29T03:06:01;19.53;;;12.97;;
12385;SDS011;6257;57.634;18.310;2024-03-29T03:08:29;22.57;;;14.33;;
12385;SDS011;6257;57.634;18.310;2024-03-29T03:11:13;18.00;;;12.60;;
12385;SDS011;6257;57.634;18.310;2024-03-29T03:13:42;21.20;;;13.07;;
12385;SDS011;6257;57.634;18.310;2024-03-29T03:16:09;19.10;;;13.67;;
12385;SDS011;6257;57.634;18.310;2024-03-29T03:18:36;18.37;;;13.37;;
12385;SDS011;6257;57.634;18.310;2024-03-29T03:21:02;19.93;;;13.80;;
12385;SDS011;6257;57.634;18.310;2024-03-29T03:23:29;18.17;;;12.80;;
12385;SDS011;6257;57.634;18.310;2024-03-29T03:25:56;17.77;;;13.37;;
12385;SDS011;6257;57.634;18.310;2024-03-29T03:28:23;19.17;;;12.20;;
12385;SDS011;6257;57.634;18.310;2024-03-29T03:30:51;16.33;;;12.13;;
12385;SDS011;6257;57.634;18.310;2024-03-29T03:33:18;17.47;;;13.20;;
12385;SDS011;6257;57.634;18.310;2024-03-29T03:35:45;16.67;;;12.03;;
12385;SDS011;6257;57.634;18.310;2024-03-29T03:38:12;19.17;;;13.27;;
12385;SDS011;6257;57.634;18.310;2024-03-29T03:40:39;16.30;;;11.90;;
12385;SDS011;6257;57.634;18.310;2024-03-29T03:43:06;16.40;;;11.80;;
12385;SDS011;6257;57.634;18.310;2024-03-29T03:45:36;17.73;;;12.00;;
12385;SDS011;6257;57.634;18.310;2024-03-29T03:48:06;16.00;;;12.10;;
12385;SDS011;6257;57.634;18.310;2024-03-29T03:50:33;16.73;;;12.00;;
12385;SDS011;6257;57.634;18.310;2024-03-29T03:53:00;14.60;;;11.10;;
12385;SDS011;6257;57.634;18.310;2024-03-29T03:55:27;14.93;;;11.13;;
12385;SDS011;6257;57.634;18.310;2024-03-29T03:57:54;15.03;;;10.80;;
12385;SDS011;6257;57.634;18.310;2024-03-29T04:00:20;15.13;;;10.20;;
12385;SDS011;6257;57.634;18.310;2024-03-29T04:02:48;11.47;;;9.33;;
12385;SDS011;6257;57.634;18.310;2024-03-29T04:05:15;10.97;;;8.60;;
12385;SDS011;6257;57.634;18.310;2024-03-29T04:07:43;10.73;;;7.70;;
12385;SDS011;6257;57.634;18.310;2024-03-29T04:10:09;9.70;;;7.30;;
12385;SDS011;6257;57.634;18.310;2024-03-29T04:12:36;9.57;;;7.37;;
12385;SDS011;6257;57.634;18.310;2024-03-29T04:15:02;9.23;;;7.47;;
12385;SDS011;6257;57.634;18.310;2024-03-29T04:17:30;10.90;;;7.07;;
12385;SDS011;6257;57.634;18.310;2024-03-29T04:19:56;8.63;;;6.20;;
12385;SDS011;6257;57.634;18.310;2024-03-29T04:22:27;8.90;;;6.63;;
12385;SDS011;6257;57.634;18.310;2024-03-29T04:24:53;8.80;;;7.00;;
12385;SDS011;6257;57.634;18.310;2024-03-29T04:27:20;6.83;;;5.20;;
12385;SDS011;6257;57.634;18.310;2024-03-29T04:29:46;7.40;;;6.30;;
12385;SDS011;6257;57.634;18.310;2024-03-29T04:32:13;7.73;;;5.80;;
12385;SDS011;6257;57.634;18.310;2024-03-29T04:34:39;6.63;;;5.57;;
12385;SDS011;6257;57.634;18.310;2024-03-29T04:37:07;6.57;;;4.93;;
12385;SDS011;6257;57.634;18.310;2024-03-29T04:39:35;6.30;;;5.17;;
12385;SDS011;6257;57.634;18.310;2024-03-29T04:42:02;6.63;;;4.60;;
12385;SDS011;6257;57.634;18.310;2024-03-29T04:44:30;5.97;;;4.87;;
12385;SDS011;6257;57.634;18.310;2024-03-29T04:46:57;5.70;;;4.87;;
12385;SDS011;6257;57.634;18.310;2024-03-29T04:49:23;6.67;;;5.07;;
12385;SDS011;6257;57.634;18.310;2024-03-29T04:51:55;5.83;;;4.40;;
12385;SDS011;6257;57.634;18.310;2024-03-29T04:54:23;6.03;;;4.63;;
12385;SDS011;6257;57.634;18.310;2024-03-29T04:56:51;5.40;;;4.43;;
12385;SDS011;6257;57.634;18.310;2024-03-29T04:59:18;5.80;;;4.37;;
12385;SDS011;6257;57.634;18.310;2024-03-29T05:01:46;6.30;;;4.67;;
12385;SDS011;6257;57.634;18.310;2024-03-29T05:04:15;5.50;;;4.33;;
12385;SDS011;6257;57.634;18.310;2024-03-29T05:06:50;7.33;;;4.87;;
12385;SDS011;6257;57.634;18.310;2024-03-29T05:09:17;5.53;;;4.23;;
12385;SDS011;6257;57.634;18.310;2024-03-29T05:11:44;5.40;;;3.93;;
12385;SDS011;6257;57.634;18.310;2024-03-29T05:14:13;5.67;;;4.27;;
12385;SDS011;6257;57.634;18.310;2024-03-29T05:16:41;5.63;;;4.40;;
12385;SDS011;6257;57.634;18.310;2024-03-29T05:19:09;4.53;;;3.77;;
12385;SDS011;6257;57.634;18.310;2024-03-29T05:21:36;3.93;;;3.50;;
12385;SDS011;6257;57.634;18.310;2024-03-29T05:24:03;3.47;;;3.07;;
12385;SDS011;6257;57.634;18.310;2024-03-29T05:26:30;4.40;;;3.27;;
12385;SDS011;6257;57.634;18.310;2024-03-29T05:28:57;4.37;;;3.40;;
12385;SDS011;6257;57.634;18.310;2024-03-29T05:31:26;4.63;;;3.50;;
12385;SDS011;6257;57.634;18.310;2024-03-29T05:33:53;4.77;;;3.67;;
12385;SDS011;6257;57.634;18.310;2024-03-29T05:36:20;4.07;;;3.13;;
12385;SDS011;6257;57.634;18.310;2024-03-29T05:38:46;4.57;;;3.27;;
12385;SDS011;6257;57.634;18.310;2024-03-29T05:41:13;2.93;;;2.63;;
12385;SDS011;6257;57.634;18.310;2024-03-29T05:43:40;3.90;;;2.63;;
12385;SDS011;6257;57.634;18.310;2024-03-29T05:46:07;4.63;;;2.80;;
12385;SDS011;6257;57.634;18.310;2024-03-29T05:48:36;3.03;;;2.60;;
12385;SDS011;6257;57.634;18.310;2024-03-29T05:51:04;3.90;;;2.80;;
12385;SDS011;6257;57.634;18.310;2024-03-29T05:53:31;2.80;;;2.60;;
12385;SDS011;6257;57.634;18.310;2024-03-29T05:55:58;4.77;;;2.73;;
12385;SDS011;6257;57.634;18.310;2024-03-29T05:58:25;4.90;;;2.90;;
12385;SDS011;6257;57.634;18.310;2024-03-29T06:00:52;4.17;;;2.90;;
12385;SDS011;6257;57.634;18.310;2024-03-29T06:03:19;3.50;;;2.90;;
12385;SDS011;6257;57.634;18.310;2024-03-29T06:05:47;3.83;;;2.57;;
12385;SDS011;6257;57.634;18.310;2024-03-29T06:08:14;3.93;;;2.77;;
12385;SDS011;6257;57.634;18.310;2024-03-29T06:10:41;3.23;;;2.60;;
12385;SDS011;6257;57.634;18.310;2024-03-29T06:13:11;3.43;;;2.80;;
12385;SDS011;6257;57.634;18.310;2024-03-29T06:15:52;3.47;;;3.10;;
12385;SDS011;6257;57.634;18.310;2024-03-29T06:18:37;4.53;;;3.30;;
12385;SDS011;6257;57.634;18.310;2024-03-29T06:21:05;4.57;;;3.20;;
12385;SDS011;6257;57.634;18.310;2024-03-29T06:23:32;4.30;;;3.10;;
12385;SDS011;6257;57.634;18.310;2024-03-29T06:25:59;4.43;;;3.77;;
12385;SDS011;6257;57.634;18.310;2024-03-29T06:28:26;3.83;;;3.33;;
12385;SDS011;6257;57.634;18.310;2024-03-29T06:30:53;5.43;;;3.70;;
12385;SDS011;6257;57.634;18.310;2024-03-29T06:33:20;4.80;;;3.53;;
12385;SDS011;6257;57.634;18.310;2024-03-29T06:35:52;5.00;;;3.90;;
12385;SDS011;6257;57.634;18.310;2024-03-29T06:38:21;4.67;;;3.73;;
12385;SDS011;6257;57.634;18.310;2024-03-29T06:40:48;5.40;;;4.40;;
12385;SDS011;6257;57.634;18.310;2024-03-29T06:43:15;6.93;;;5.03;;
12385;SDS011;6257;57.634;18.310;2024-03-29T06:45:42;8.57;;;5.27;;
12385;SDS011;6257;57.634;18.310;2024-03-29T06:48:09;6.83;;;5.43;;
12385;SDS011;6257;57.634;18.310;2024-03-29T06:50:37;8.13;;;5.43;;
12385;SDS011;6257;57.634;18.310;2024-03-29T06:53:05;8.60;;;5.50;;
12385;SDS011;6257;57.634;18.310;2024-03-29T06:55:35;8.63;;;6.47;;
12385;SDS011;6257;57.634;18.310;2024-03-29T06:58:03;8.00;;;6.00;;
12385;SDS011;6257;57.634;18.310;2024-03-29T07:00:30;8.77;;;6.53;;
12385;SDS011;6257;57.634;18.310;2024-03-29T07:02:58;8.97;;;7.10;;
12385;SDS011;6257;57.634;18.310;2024-03-29T07:05:25;9.00;;;7.17;;
12385;SDS011;6257;57.634;18.310;2024-03-29T07:07:52;10.10;;;7.20;;
12385;SDS011;6257;57.634;18.310;2024-03-29T07:10:21;9.17;;;7.17;;
12385;SDS011;6257;57.634;18.310;2024-03-29T07:12:49;9.00;;;7.20;;
12385;SDS011;6257;57.634;18.310;2024-03-29T07:15:16;9.87;;;7.03;;
12385;SDS011;6257;57.634;18.310;2024-03-29T07:17:43;9.50;;;6.53;;
12385;SDS011;6257;57.634;18.310;2024-03-29T07:20:11;8.77;;;6.20;;
12385;SDS011;6257;57.634;18.310;2024-03-29T07:22:38;7.73;;;5.63;;
12385;SDS011;6257;57.634;18.310;2024-03-29T07:25:06;7.27;;;5.23;;
12385;SDS011;6257;57.634;18.310;2024-03-29T07:27:33;6.57;;;4.40;;
12385;SDS011;6257;57.634;18.310;2024-03-29T07:30:02;4.57;;;3.93;;
12385;SDS011;6257;57.634;18.310;2024-03-29T07:32:30;4.97;;;3.70;;
12385;SDS011;6257;57.634;18.310;2024-03-29T07:34:57;4.37;;;3.03;;
12385;SDS011;6257;57.634;18.310;2024-03-29T07:37:24;3.63;;;2.70;;
12385;SDS011;6257;57.634;18.310;2024-03-29T07:39:51;4.93;;;3.70;;
12385;SDS011;6257;57.634;18.310;2024-03-29T07:42:19;7.27;;;5.10;;
12385;SDS011;6257;57.634;18.310;2024-03-29T07:44:47;7.33;;;5.60;;
12385;SDS011;6257;57.634;18.310;2024-03-29T07:47:15;7.90;;;5.67;;
12385;SDS011;6257;57.634;18.310;2024-03-29T07:49:42;7.97;;;5.10;;
12385;SDS011;6257;57.634;18.310;2024-03-29T07:52:10;7.77;;;4.60;;
12385;SDS011;6257;57.634;18.310;2024-03-29T07:54:37;7.13;;;4.97;;
12385;SDS011;6257;57.634;18.310;2024-03-29T07:57:04;6.07;;;5.03;;
12385;SDS011;6257;57.634;18.310;2024-03-29T07:59:33;7.07;;;5.10;;
12385;SDS011;6257;57.634;18.310;2024-03-29T08:02:00;7.17;;;5.83;;
12385;SDS011;6257;57.634;18.310;2024-03-29T08:04:29;6.73;;;5.53;;
12385;SDS011;6257;57.634;18.310;2024-03-29T08:06:56;8.40;;;6.47;;
12385;SDS011;6257;57.634;18.310;2024-03-29T08:09:23;7.33;;;5.67;;
12385;SDS011;6257;57.634;18.310;2024-03-29T08:11:50;6.47;;;5.30;;
12385;SDS011;6257;57.634;18.310;2024-03-29T08:14:18;7.10;;;5.23;;
12385;SDS011;6257;57.634;18.310;2024-03-29T08:16:45;6.73;;;5.00;;
12385;SDS011;6257;57.634;18.310;2024-03-29T08:19:12;5.50;;;4.63;;
12385;SDS011;6257;57.634;18.310;2024-03-29T08:21:40;6.07;;;4.77;;
12385;SDS011;6257;57.634;18.310;2024-03-29T08:24:07;5.67;;;5.00;;
12385;SDS011;6257;57.634;18.310;2024-03-29T08:26:35;8.17;;;5.80;;
12385;SDS011;6257;57.634;18.310;2024-03-29T08:29:02;8.67;;;5.87;;
12385;SDS011;6257;57.634;18.310;2024-03-29T08:31:29;7.73;;;6.57;;
12385;SDS011;6257;57.634;18.310;2024-03-29T08:33:56;7.10;;;6.40;;
12385;SDS011;6257;57.634;18.310;2024-03-29T08:36:23;8.37;;;6.50;;
12385;SDS011;6257;57.634;18.310;2024-03-29T08:38:52;6.70;;;5.93;;
12385;SDS011;6257;57.634;18.310;2024-03-29T08:41:19;6.97;;;5.00;;
12385;SDS011;6257;57.634;18.310;2024-03-29T08:43:46;10.17;;;7.03;;
12385;SDS011;6257;57.634;18.310;2024-03-29T08:46:13;16.07;;;7.40;;
12385;SDS011;6257;57.634;18.310;2024-03-29T08:48:40;10.37;;;7.60;;
12385;SDS011;6257;57.634;18.310;2024-03-29T08:51:08;10.83;;;7.83;;
12385;SDS011;6257;57.634;18.310;2024-03-29T08:53:35;10.77;;;6.97;;
12385;SDS011;6257;57.634;18.310;2024-03-29T08:56:04;11.03;;;7.63;;
12385;SDS011;6257;57.634;18.310;2024-03-29T08:58:31;11.90;;;7.63;;
12385;SDS011;6257;57.634;18.310;2024-03-29T09:00:58;9.37;;;7.83;;
12385;SDS011;6257;57.634;18.310;2024-03-29T09:03:29;10.33;;;7.90;;
12385;SDS011;6257;57.634;18.310;2024-03-29T09:05:56;9.93;;;8.20;;
12385;SDS011;6257;57.634;18.310;2024-03-29T09:08:23;11.13;;;8.27;;
12385;SDS011;6257;57.634;18.310;2024-03-29T09:10:50;9.83;;;8.10;;
12385;SDS011;6257;57.634;18.310;2024-03-29T09:13:18;12.33;;;8.30;;
12385;SDS011;6257;57.634;18.310;2024-03-29T09:15:45;12.87;;;8.30;;
12385;SDS011;6257;57.634;18.310;2024-03-29T09:18:14;10.70;;;8.53;;
12385;SDS011;6257;57.634;18.310;2024-03-29T09:20:55;11.67;;;9.00;;
12385;SDS011;6257;57.634;18.310;2024-03-29T09:23:23;12.93;;;8.73;;
12385;SDS011;6257;57.634;18.310;2024-03-29T09:25:50;10.60;;;8.20;;
12385;SDS011;6257;57.634;18.310;2024-03-29T09:28:19;11.37;;;8.37;;
12385;SDS011;6257;57.634;18.310;2024-03-29T09:30:46;9.83;;;7.73;;
12385;SDS011;6257;57.634;18.310;2024-03-29T09:33:13;10.50;;;7.60;;
12385;SDS011;6257;57.634;18.310;2024-03-29T09:35:40;9.17;;;7.53;;
12385;SDS011;6257;57.634;18.310;2024-03-29T09:38:08;10.80;;;7.80;;
12385;SDS011;6257;57.634;18.310;2024-03-29T09:40:35;9.03;;;7.33;;
12385;SDS011;6257;57.634;18.310;2024-03-29T09:43:03;9.67;;;6.90;;
12385;SDS011;6257;57.634;18.310;2024-03-29T09:45:32;10.77;;;8.13;;
12385;SDS011;6257;57.634;18.310;2024-03-29T09:48:02;10.63;;;8.10;;
12385;SDS011;6257;57.634;18.310;2024-03-29T09:50:31;10.47;;;8.60;;
12385;SDS011;6257;57.634;18.310;2024-03-29T09:52:58;12.87;;;8.73;;
12385;SDS011;6257;57.634;18.310;2024-03-29T09:55:25;14.03;;;9.33;;
12385;SDS011;6257;57.634;18.310;2024-03-29T09:57:53;12.30;;;9.27;;
12385;SDS011;6257;57.634;18.310;2024-03-29T10:00:20;12.80;;;8.90;;
12385;SDS011;6257;57.634;18.310;2024-03-29T10:02:50;12.63;;;8.90;;
12385;SDS011;6257;57.634;18.310;2024-03-29T10:05:21;11.87;;;8.37;;
12385;SDS011;6257;57.634;18.310;2024-03-29T10:07:50;12.73;;;8.87;;
12385;SDS011;6257;57.634;18.310;2024-03-29T10:10:17;9.87;;;7.60;;
12385;SDS011;6257;57.634;18.310;2024-03-29T10:12:44;9.50;;;7.70;;
12385;SDS011;6257;57.634;18.310;2024-03-29T10:15:11;10.63;;;7.50;;
12385;SDS011;6257;57.634;18.310;2024-03-29T10:17:44;10.20;;;6.87;;
12385;SDS011;6257;57.634;18.310;2024-03-29T10:20:16;9.80;;;7.13;;
12385;SDS011;6257;57.634;18.310;2024-03-29T10:22:44;7.90;;;6.40;;
12385;SDS011;6257;57.634;18.310;2024-03-29T10:25:12;9.07;;;6.70;;
12385;SDS011;6257;57.634;18.310;2024-03-29T10:27:40;12.00;;;7.47;;
12385;SDS011;6257;57.634;18.310;2024-03-29T10:30:07;10.30;;;6.90;;
12385;SDS011;6257;57.634;18.310;2024-03-29T10:32:37;9.00;;;7.00;;
12385;SDS011;6257;57.634;18.310;2024-03-29T10:35:05;9.20;;;6.60;;
12385;SDS011;6257;57.634;18.310;2024-03-29T10:37:34;11.60;;;7.07;;
12385;SDS011;6257;57.634;18.310;2024-03-29T10:40:05;11.00;;;7.37;;
12385;SDS011;6257;57.634;18.310;2024-03-29T10:42:33;9.00;;;7.03;;
12385;SDS011;6257;57.634;18.310;2024-03-29T10:45:03;8.67;;;6.60;;
12385;SDS011;6257;57.634;18.310;2024-03-29T10:47:33;9.63;;;7.00;;
12385;SDS011;6257;57.634;18.310;2024-03-29T10:50:00;9.83;;;6.07;;
12385;SDS011;6257;57.634;18.310;2024-03-29T10:52:30;8.53;;;6.10;;
12385;SDS011;6257;57.634;18.310;2024-03-29T10:54:59;8.80;;;6.00;;
12385;SDS011;6257;57.634;18.310;2024-03-29T10:57:27;7.60;;;6.10;;
12385;SDS011;6257;57.634;18.310;2024-03-29T10:59:57;8.80;;;5.53;;
12385;SDS011;6257;57.634;18.310;2024-03-29T11:02:32;10.23;;;6.07;;
12385;SDS011;6257;57.634;18.310;2024-03-29T11:05:06;9.40;;;5.90;;
12385;SDS011;6257;57.634;18.310;2024-03-29T11:07:39;7.53;;;5.07;;
12385;SDS011;6257;57.634;18.310;2024-03-29T11:10:11;7.10;;;4.90;;
12385;SDS011;6257;57.634;18.310;2024-03-29T11:12:43;7.20;;;4.43;;
12385;SDS011;6257;57.634;18.310;2024-03-29T11:15:19;7.87;;;4.70;;
12385;SDS011;6257;57.634;18.310;2024-03-29T11:17:53;6.60;;;4.20;;
12385;SDS011;6257;57.634;18.310;2024-03-29T11:20:21;7.97;;;3.93;;
12385;SDS011;6257;57.634;18.310;2024-03-29T11:22:58;4.87;;;3.37;;
12385;SDS011;6257;57.634;18.310;2024-03-29T11:25:38;5.50;;;3.13;;
12385;SDS011;6257;57.634;18.310;2024-03-29T11:28:09;6.43;;;3.40;;
12385;SDS011;6257;57.634;18.310;2024-03-29T11:30:42;7.17;;;3.20;;
12385;SDS011;6257;57.634;18.310;2024-03-29T11:33:27;6.97;;;3.40;;
12385;SDS011;6257;57.634;18.310;2024-03-29T11:35:56;4.83;;;2.70;;
12385;SDS011;6257;57.634;18.310;2024-03-29T11:38:30;6.77;;;2.83;;
12385;SDS011;6257;57.634;18.310;2024-03-29T11:41:06;6.83;;;2.57;;
12385;SDS011;6257;57.634;18.310;2024-03-29T11:43:34;7.33;;;3.33;;
12385;SDS011;6257;57.634;18.310;2024-03-29T11:46:04;3.70;;;2.00;;
12385;SDS011;6257;57.634;18.310;2024-03-29T11:48:31;4.93;;;2.40;;
12385;SDS011;6257;57.634;18.310;2024-03-29T11:50:59;5.83;;;1.97;;
12385;SDS011;6257;57.634;18.310;2024-03-29T11:53:28;4.93;;;1.90;;
12385;SDS011;6257;57.634;18.310;2024-03-29T11:55:56;4.20;;;2.13;;
12385;SDS011;6257;57.634;18.310;2024-03-29T11:58:25;4.03;;;2.00;;
12385;SDS011;6257;57.634;18.310;2024-03-29T12:00:53;5.27;;;2.30;;
12385;SDS011;6257;57.634;18.310;2024-03-29T12:03:22;5.37;;;2.30;;
12385;SDS011;6257;57.634;18.310;2024-03-29T12:05:51;5.23;;;2.40;;
12385;SDS011;6257;57.634;18.310;2024-03-29T12:08:20;7.90;;;2.00;;
12385;SDS011;6257;57.634;18.310;2024-03-29T12:10:48;6.10;;;1.80;;
12385;SDS011;6257;57.634;18.310;2024-03-29T12:13:15;8.53;;;2.10;;
12385;SDS011;6257;57.634;18.310;2024-03-29T12:15:45;8.43;;;2.10;;
12385;SDS011;6257;57.634;18.310;2024-03-29T12:18:12;8.50;;;2.47;;
12385;SDS011;6257;57.634;18.310;2024-03-29T12:20:41;7.33;;;2.60;;
12385;SDS011;6257;57.634;18.310;2024-03-29T12:23:11;5.10;;;2.30;;
12385;SDS011;6257;57.634;18.310;2024-03-29T12:25:39;7.57;;;2.47;;
12385;SDS011;6257;57.634;18.310;2024-03-29T12:28:07;5.23;;;2.70;;
12385;SDS011;6257;57.634;18.310;2024-03-29T12:30:35;5.37;;;2.30;;
12385;SDS011;6257;57.634;18.310;2024-03-29T12:33:05;6.80;;;2.37;;
12385;SDS011;6257;57.634;18.310;2024-03-29T12:35:33;3.70;;;2.30;;
12385;SDS011;6257;57.634;18.310;2024-03-29T12:38:01;3.43;;;1.80;;
12385;SDS011;6257;57.634;18.310;2024-03-29T12:40:29;6.77;;;2.13;;
12385;SDS011;6257;57.634;18.310;2024-03-29T12:43:01;4.93;;;2.40;;
12385;SDS011;6257;57.634;18.310;2024-03-29T12:45:30;7.50;;;2.43;;
12385;SDS011;6257;57.634;18.310;2024-03-29T12:47:57;6.63;;;2.60;;
12385;SDS011;6257;57.634;18.310;2024-03-29T12:50:26;8.70;;;2.70;;
12385;SDS011;6257;57.634;18.310;2024-03-29T12:52:56;6.27;;;2.40;;
12385;SDS011;6257;57.634;18.310;2024-03-29T12:55:24;5.97;;;2.00;;
12385;SDS011;6257;57.634;18.310;2024-03-29T12:57:55;4.53;;;2.40;;
12385;SDS011;6257;57.634;18.310;2024-03-29T13:00:25;4.73;;;2.10;;
12385;SDS011;6257;57.634;18.310;2024-03-29T13:02:52;5.63;;;2.10;;
12385;SDS011;6257;57.634;18.310;2024-03-29T13:05:19;6.03;;;2.17;;
12385;SDS011;6257;57.634;18.310;2024-03-29T13:07:48;4.57;;;1.97;;
12385;SDS011;6257;57.634;18.310;2024-03-29T13:10:15;3.53;;;1.90;;
12385;SDS011;6257;57.634;18.310;2024-03-29T13:12:46;6.23;;;1.80;;
12385;SDS011;6257;57.634;18.310;2024-03-29T13:15:15;6.20;;;2.50;;
12385;SDS011;6257;57.634;18.310;2024-03-29T13:17:43;5.67;;;1.83;;
12385;SDS011;6257;57.634;18.310;2024-03-29T13:20:11;7.87;;;2.10;;
12385;SDS011;6257;57.634;18.310;2024-03-29T13:22:40;3.90;;;1.73;;
12385;SDS011;6257;57.634;18.310;2024-03-29T13:25:11;6.47;;;1.80;;
12385;SDS011;6257;57.634;18.310;2024-03-29T13:27:39;6.83;;;2.07;;
12385;SDS011;6257;57.634;18.310;2024-03-29T13:30:07;7.03;;;1.93;;
12385;SDS011;6257;57.634;18.310;2024-03-29T13:32:35;4.63;;;1.80;;
12385;SDS011;6257;57.634;18.310;2024-03-29T13:35:02;7.00;;;2.23;;
12385;SDS011;6257;57.634;18.310;2024-03-29T13:37:31;4.20;;;1.83;;
12385;SDS011;6257;57.634;18.310;2024-03-29T13:39:58;3.53;;;1.70;;
12385;SDS011;6257;57.634;18.310;2024-03-29T13:42:27;4.77;;;1.73;;
12385;SDS011;6257;57.634;18.310;2024-03-29T13:44:54;6.23;;;1.93;;
12385;SDS011;6257;57.634;18.310;2024-03-29T13:47:22;6.37;;;1.90;;
12385;SDS011;6257;57.634;18.310;2024-03-29T13:49:49;5.80;;;1.90;;
12385;SDS011;6257;57.634;18.310;2024-03-29T13:52:18;7.07;;;2.20;;
12385;SDS011;6257;57.634;18.310;2024-03-29T13:54:45;4.33;;;2.30;;
12385;SDS011;6257;57.634;18.310;2024-03-29T13:57:12;5.87;;;2.80;;
12385;SDS011;6257;57.634;18.310;2024-03-29T13:59:41;7.33;;;2.90;;
12385;SDS011;6257;57.634;18.310;2024-03-29T14:02:10;6.43;;;3.00;;
12385;SDS011;6257;57.634;18.310;2024-03-29T14:04:39;6.83;;;3.30;;
12385;SDS011;6257;57.634;18.310;2024-03-29T14:07:06;7.40;;;3.30;;
12385;SDS011;6257;57.634;18.310;2024-03-29T14:09:34;6.80;;;3.57;;
12385;SDS011;6257;57.634;18.310;2024-03-29T14:12:01;9.93;;;3.40;;
12385;SDS011;6257;57.634;18.310;2024-03-29T14:14:29;8.50;;;4.10;;
12385;SDS011;6257;57.634;18.310;2024-03-29T14:16:58;12.73;;;4.13;;
12385;SDS011;6257;57.634;18.310;2024-03-29T14:19:29;8.57;;;3.87;;
12385;SDS011;6257;57.634;18.310;2024-03-29T14:21:56;7.60;;;4.20;;
12385;SDS011;6257;57.634;18.310;2024-03-29T14:24:23;6.20;;;4.07;;
12385;SDS011;6257;57.634;18.310;2024-03-29T14:26:52;6.33;;;4.20;;
12385;SDS011;6257;57.634;18.310;2024-03-29T14:29:19;7.73;;;4.30;;
12385;SDS011;6257;57.634;18.310;2024-03-29T14:31:47;7.47;;;4.13;;
12385;SDS011;6257;57.634;18.310;2024-03-29T14:34:15;7.13;;;4.20;;
12385;SDS011;6257;57.634;18.310;2024-03-29T14:36:43;5.90;;;4.07;;
12385;SDS011;6257;57.634;18.310;2024-03-29T14:39:10;8.63;;;4.33;;
12385;SDS011;6257;57.634;18.310;2024-03-29T14:41:38;6.37;;;4.00;;
12385;SDS011;6257;57.634;18.310;2024-03-29T14:44:06;7.73;;;4.23;;